Rangpur, Bangladesh
Current Conditions -  °F | °C
As of 2:20 PM on Friday 31 Oct 2014 (Local Time) from VQPR Reporting Station
Scattered Clouds Scattered Clouds  
Wind Chill: 68°   Ceiling: Unl
Heat Index: 68°   Visibility: 6mi
Dew Point: 36°   Wind: 12mph
Humidity: 30%   Direction: 160°SSE
Pressure: 30.09"   Gusts: NA
Location:  25.74°N, 89.25°E
Report Text: VQPR 310820Z 16010KT 9999 SCT030 20/02 Q1019 NOSIG
Loading
Personal Weather Stations






























Interactive Weather Map
Tropical Storm Tracking
New forecast layout! Learn more

10-Day Weather Forecast

Advertisements
Track Severe Weather on mobile